createdAt,value
2023-02-17T00:00:58.220Z,73.58
2023-02-17T00:02:06.361Z,74.38
2023-02-17T00:03:10.143Z,73.07
2023-02-17T00:04:14.957Z,72.36
2023-02-17T00:05:17.258Z,74.01
2023-02-17T00:06:24.033Z,73.10
2023-02-17T00:07:31.675Z,72.57
2023-02-17T00:08:36.752Z,73.33
2023-02-17T00:09:41.636Z,73.13
2023-02-17T00:10:44.294Z,72.55
2023-02-17T00:11:49.387Z,72.58
2023-02-17T00:12:51.472Z,74.88
2023-02-17T00:13:56.696Z,74.53
2023-02-17T00:14:59.312Z,73.74
2023-02-17T00:16:09.243Z,74.31
2023-02-17T00:17:14.578Z,75.20
2023-02-17T00:18:19.653Z,75.22
2023-02-17T00:19:25.268Z,74.07
2023-02-17T00:20:32.386Z,75.14
2023-02-17T00:21:35.628Z,73.75
2023-02-17T00:22:40.522Z,73.02
2023-02-17T00:23:43.278Z,72.81
2023-02-17T00:24:48.294Z,73.31
2023-02-17T00:25:50.436Z,72.72
2023-02-17T00:26:59.384Z,72.87
2023-02-17T00:28:01.771Z,72.66
2023-02-17T00:29:10.598Z,73.35
2023-02-17T00:30:13.013Z,72.62
2023-02-17T00:31:20.809Z,73.14
2023-02-17T00:32:27.049Z,73.49
2023-02-17T00:33:32.061Z,74.74
2023-02-17T00:34:34.216Z,74.74
2023-02-17T00:35:43.002Z,74.39
2023-02-17T00:36:45.099Z,75.53
2023-02-17T00:37:49.711Z,75.75
2023-02-17T00:38:54.284Z,74.61
2023-02-17T00:40:00.900Z,73.87
2023-02-17T00:41:04.730Z,74.86
2023-02-17T00:42:12.183Z,75.95
2023-02-17T00:43:14.510Z,76.50
2023-02-17T00:44:21.210Z,75.83
2023-02-17T00:45:29.150Z,74.65
2023-02-17T00:46:35.953Z,74.56
2023-02-17T00:47:40.832Z,74.20
2023-02-17T00:48:45.775Z,73.51
2023-02-17T00:49:48.166Z,73.11
2023-02-17T00:50:53.603Z,73.78
2023-02-17T00:51:55.698Z,73.36
2023-02-17T00:53:00.827Z,73.42
2023-02-17T00:54:02.990Z,74.33
2023-02-17T00:55:08.402Z,74.52
2023-02-17T00:56:10.885Z,74.27
2023-02-17T00:57:15.632Z,73.62
2023-02-17T00:58:17.853Z,73.98
2023-02-17T00:59:22.699Z,73.57
2023-02-17T01:00:25.052Z,74.39
2023-02-17T01:01:32.213Z,74.69
2023-02-17T01:02:34.466Z,73.53
2023-02-17T01:03:42.425Z,73.90
2023-02-17T01:04:46.133Z,74.64
2023-02-17T01:05:51.857Z,74.09
2023-02-17T01:06:54.001Z,75.50
2023-02-17T01:08:00.110Z,74.93
2023-02-17T01:09:02.697Z,74.79
2023-02-17T01:10:08.007Z,74.42
2023-02-17T01:11:17.895Z,75.55
2023-02-17T01:12:22.669Z,75.95
2023-02-17T01:13:25.045Z,77.09
2023-02-17T01:14:30.689Z,76.56
2023-02-17T01:15:37.032Z,77.22
2023-02-17T01:16:43.616Z,76.76
2023-02-17T01:17:45.725Z,75.75
2023-02-17T01:18:53.445Z,75.46
2023-02-17T01:19:55.877Z,76.17
2023-02-17T01:21:00.984Z,75.80
2023-02-17T01:22:03.071Z,76.38
2023-02-17T01:23:10.941Z,75.20
2023-02-17T01:24:14.117Z,75.75
2023-02-17T01:25:19.264Z,75.85
2023-02-17T01:26:23.331Z,76.01
2023-02-17T01:27:28.663Z,76.20
2023-02-17T01:28:31.600Z,76.32
2023-02-17T01:29:36.589Z,75.81
2023-02-17T01:30:38.739Z,75.48
2023-02-17T01:31:43.630Z,75.08
2023-02-17T01:32:45.819Z,75.86
2023-02-17T01:33:53.631Z,75.21
2023-02-17T01:34:55.816Z,76.34
2023-02-17T01:36:05.334Z,76.18
2023-02-17T01:37:07.978Z,75.22
2023-02-17T01:38:14.287Z,75.11
2023-02-17T01:39:17.427Z,76.34
2023-02-17T01:40:22.735Z,76.13
2023-02-17T01:41:28.197Z,77.05
2023-02-17T01:42:40.451Z,75.73
2023-02-17T01:43:42.840Z,76.09
2023-02-17T01:45:30.183Z,76.19
2023-02-17T01:46:32.973Z,76.65
2023-02-17T01:47:37.899Z,76.06
2023-02-17T01:48:45.581Z,78.12
2023-02-17T01:49:52.991Z,77.31
2023-02-17T01:51:01.470Z,76.38
2023-02-17T01:52:13.481Z,76.49
2023-02-17T01:53:20.099Z,76.51
2023-02-17T01:54:29.910Z,76.68
2023-02-17T01:55:34.563Z,76.54
2023-02-17T01:56:43.549Z,76.50
2023-02-17T01:57:47.314Z,76.40
2023-02-17T01:58:56.804Z,75.46
2023-02-17T02:00:00.243Z,76.24
2023-02-17T02:01:08.043Z,76.49
2023-02-17T02:02:10.514Z,76.28
2023-02-17T02:03:17.673Z,75.77
2023-02-17T02:04:25.783Z,76.23
2023-02-17T02:05:37.558Z,75.21
2023-02-17T02:06:43.633Z,76.14
2023-02-17T02:07:53.259Z,76.32
2023-02-17T02:09:05.316Z,75.49
2023-02-17T02:10:12.341Z,74.78
2023-02-17T02:11:17.500Z,75.65
2023-02-17T02:12:25.146Z,76.44
2023-02-17T02:13:27.300Z,75.92
2023-02-17T02:14:32.698Z,75.64
2023-02-17T02:15:44.281Z,74.21
2023-02-17T02:16:55.042Z,75.82
2023-02-17T02:18:23.341Z,75.10
2023-02-17T02:19:46.672Z,75.86
2023-02-17T02:21:26.781Z,76.21
2023-02-17T02:23:07.598Z,76.38
2023-02-17T02:24:24.150Z,76.18
2023-02-17T02:25:45.110Z,76.42
2023-02-17T02:27:26.069Z,75.62
2023-02-17T02:28:47.849Z,75.37
2023-02-17T02:30:23.786Z,76.95
2023-02-17T02:31:40.772Z,75.55
2023-02-17T02:33:08.056Z,75.57
2023-02-17T02:34:19.132Z,75.69
2023-02-17T02:35:29.028Z,76.21
2023-02-17T02:36:40.736Z,74.68
2023-02-17T02:37:44.432Z,74.74
2023-02-17T02:38:59.879Z,75.60
2023-02-17T02:40:08.603Z,74.67
2023-02-17T02:41:16.981Z,75.04
2023-02-17T02:42:24.666Z,75.95
2023-02-17T02:43:29.694Z,75.66
2023-02-17T02:44:32.107Z,75.74
2023-02-17T02:45:37.313Z,76.30
2023-02-17T02:46:39.446Z,75.87
2023-02-17T02:47:50.716Z,76.58
2023-02-17T02:48:58.817Z,77.16
2023-02-17T02:50:01.375Z,77.95
2023-02-17T02:51:24.224Z,76.90
2023-02-17T02:52:32.111Z,77.37
2023-02-17T02:54:10.816Z,76.42
2023-02-17T02:55:22.723Z,76.63
2023-02-17T02:56:37.976Z,76.23
2023-02-17T02:57:50.166Z,76.49
2023-02-17T02:59:03.093Z,76.72
2023-02-17T03:00:16.071Z,77.14
2023-02-17T03:01:27.508Z,76.28
2023-02-17T03:02:39.552Z,76.87
2023-02-17T03:03:47.477Z,76.47
2023-02-17T03:05:04.766Z,77.34
2023-02-17T03:06:15.373Z,77.60
2023-02-17T03:07:27.815Z,77.58
2023-02-17T03:08:38.077Z,77.65
2023-02-17T03:09:40.244Z,77.58
2023-02-17T03:10:49.401Z,77.90
2023-02-17T03:11:55.690Z,78.07
2023-02-17T03:13:01.687Z,77.89
2023-02-17T03:14:07.887Z,78.04
2023-02-17T03:15:18.844Z,77.48
2023-02-17T03:16:20.992Z,76.98
2023-02-17T03:17:29.056Z,78.03
2023-02-17T03:18:32.636Z,77.21
2023-02-17T03:19:38.168Z,77.90
2023-02-17T03:20:49.546Z,78.69
2023-02-17T03:21:58.853Z,78.98
2023-02-17T03:23:01.423Z,79.13
2023-02-17T03:24:06.272Z,79.52
2023-02-17T03:25:13.180Z,79.99
2023-02-17T03:26:17.869Z,79.56
2023-02-17T03:27:19.973Z,79.84
2023-02-17T03:28:24.873Z,79.39
2023-02-17T03:29:27.004Z,79.28
2023-02-17T03:30:33.484Z,79.27
2023-02-17T03:31:36.256Z,80.74
2023-02-17T03:32:41.171Z,79.34
2023-02-17T03:33:43.382Z,79.94
2023-02-17T03:34:48.171Z,80.69
2023-02-17T03:35:53.372Z,80.43
2023-02-17T03:36:58.246Z,80.62
2023-02-17T03:38:00.407Z,80.31
2023-02-17T03:39:07.258Z,80.84
2023-02-17T03:40:10.701Z,80.62
2023-02-17T03:41:15.522Z,80.82
2023-02-17T03:42:17.689Z,80.56
2023-02-17T03:43:22.316Z,80.93
2023-02-17T03:44:24.656Z,80.18
2023-02-17T03:45:32.035Z,81.51
2023-02-17T03:46:34.206Z,81.68
2023-02-17T03:47:39.161Z,81.90
2023-02-17T03:48:41.372Z,82.56
2023-02-17T03:49:46.654Z,81.73
2023-02-17T03:50:48.985Z,82.70
2023-02-17T03:51:56.498Z,81.75
2023-02-17T03:52:58.604Z,81.67
2023-02-17T03:54:03.364Z,82.55
2023-02-17T03:55:06.520Z,81.57
2023-02-17T03:56:11.674Z,82.53
2023-02-17T03:57:13.652Z,82.91
2023-02-17T03:58:18.258Z,83.58
2023-02-17T03:59:20.496Z,84.36
2023-02-17T04:00:25.550Z,84.11
2023-02-17T04:01:27.740Z,83.14
2023-02-17T04:02:32.418Z,83.72
2023-02-17T04:03:35.231Z,83.98
2023-02-17T04:04:39.879Z,84.14
2023-02-17T04:05:44.756Z,83.45
2023-02-17T04:06:49.872Z,84.86
2023-02-17T04:07:54.610Z,84.75
2023-02-17T04:08:59.263Z,85.05
2023-02-17T04:10:03.274Z,85.40
2023-02-17T04:11:12.164Z,84.87
2023-02-17T04:12:16.787Z,86.39
2023-02-17T04:13:21.803Z,86.26
2023-02-17T04:14:24.048Z,84.99
2023-02-17T04:15:30.149Z,84.37
2023-02-17T04:16:32.823Z,84.76
2023-02-17T04:17:39.065Z,85.70
2023-02-17T04:18:41.165Z,86.16
2023-02-17T04:19:45.880Z,86.95
2023-02-17T04:20:50.161Z,86.23
2023-02-17T04:21:55.669Z,87.36
2023-02-17T04:23:00.392Z,86.82
2023-02-17T04:24:09.054Z,87.88
2023-02-17T04:25:11.116Z,88.14
2023-02-17T04:26:16.143Z,87.85
2023-02-17T04:27:18.488Z,89.21
2023-02-17T04:28:27.242Z,88.88
2023-02-17T04:29:32.276Z,89.00
2023-02-17T04:30:35.002Z,88.85
2023-02-17T04:31:39.922Z,89.33
2023-02-17T04:32:42.243Z,89.51
2023-02-17T04:33:47.150Z,89.51
2023-02-17T04:34:50.798Z,88.69
2023-02-17T04:35:59.831Z,88.01
2023-02-17T04:37:04.558Z,88.89
2023-02-17T04:38:10.865Z,89.45
2023-02-17T04:39:15.692Z,88.55
2023-02-17T04:40:18.257Z,89.70
2023-02-17T04:41:23.200Z,89.37
2023-02-17T04:42:25.633Z,89.96
2023-02-17T04:43:32.609Z,89.35
2023-02-17T04:44:34.760Z,88.85
2023-02-17T04:45:40.686Z,90.09
2023-02-17T04:46:42.916Z,90.31
2023-02-17T04:47:48.007Z,89.48
2023-02-17T04:48:52.201Z,90.37
2023-02-17T04:49:57.342Z,89.82
2023-02-17T04:50:59.489Z,89.59
2023-02-17T04:52:04.841Z,89.49
2023-02-17T04:53:09.665Z,90.80
2023-02-17T04:54:14.406Z,90.54
2023-02-17T04:55:17.699Z,90.83
2023-02-17T04:56:23.918Z,90.77
2023-02-17T04:57:28.970Z,91.34
2023-02-17T04:58:33.872Z,91.27
2023-02-17T04:59:36.206Z,90.37
2023-02-17T05:00:41.274Z,89.99
2023-02-17T05:01:46.790Z,90.34
2023-02-17T05:02:51.903Z,90.95
2023-02-17T05:03:53.982Z,90.60
2023-02-17T05:04:58.920Z,91.71
2023-02-17T05:06:03.479Z,90.65
2023-02-17T05:07:08.449Z,92.28
2023-02-17T05:08:14.771Z,91.84
2023-02-17T05:09:19.492Z,91.39
2023-02-17T05:10:24.002Z,92.49
2023-02-17T05:11:32.072Z,92.37
2023-02-17T05:12:36.477Z,92.23
2023-02-17T05:13:43.944Z,92.43
2023-02-17T05:14:51.323Z,92.08
2023-02-17T05:16:00.593Z,91.30
2023-02-17T05:17:04.650Z,92.10
2023-02-17T05:18:15.439Z,92.59
2023-02-17T05:19:17.576Z,92.35
2023-02-17T05:20:33.665Z,93.20
2023-02-17T05:21:36.355Z,93.86
2023-02-17T05:22:50.000Z,94.10
2023-02-17T05:23:57.108Z,93.54
2023-02-17T05:25:05.143Z,93.99
2023-02-17T05:26:08.145Z,93.39
2023-02-17T05:27:14.102Z,94.34
2023-02-17T05:28:17.210Z,94.71
2023-02-17T05:29:31.217Z,94.35
2023-02-17T05:30:33.423Z,93.81
2023-02-17T05:31:40.877Z,95.34
2023-02-17T05:32:44.444Z,95.73
2023-02-17T05:33:56.069Z,95.37
2023-02-17T05:35:01.229Z,96.92
2023-02-17T05:36:11.086Z,96.71
2023-02-17T05:37:13.497Z,96.28
2023-02-17T05:38:18.461Z,96.61
2023-02-17T05:39:23.708Z,96.18
2023-02-17T05:40:29.869Z,96.96
2023-02-17T05:41:32.036Z,97.37
2023-02-17T05:42:37.386Z,96.75
2023-02-17T05:43:42.225Z,98.09
2023-02-17T05:44:44.553Z,98.35
2023-02-17T05:45:49.755Z,97.76
2023-02-17T05:46:51.971Z,98.28
2023-02-17T05:47:56.931Z,98.62
2023-02-17T05:48:58.989Z,98.09
2023-02-17T05:50:03.938Z,98.55
2023-02-17T05:51:06.670Z,98.41
2023-02-17T05:52:11.507Z,98.74
2023-02-17T05:53:13.934Z,98.13
2023-02-17T05:54:18.761Z,98.33
2023-02-17T05:55:32.459Z,98.96
2023-02-17T05:56:40.396Z,99.99
2023-02-17T05:57:44.954Z,99.72
2023-02-17T05:58:50.294Z,100.00
2023-02-17T05:59:53.401Z,99.80
2023-02-17T06:01:01.503Z,100.00
2023-02-17T06:02:14.957Z,100.00
2023-02-17T06:03:20.790Z,100.00
2023-02-17T06:04:23.820Z,100.00
2023-02-17T06:05:29.142Z,100.00
2023-02-17T06:06:31.821Z,100.00
2023-02-17T06:07:37.376Z,100.00
2023-02-17T06:08:43.354Z,100.00
2023-02-17T06:10:01.753Z,100.00
2023-02-17T06:11:25.338Z,100.00
2023-02-17T06:12:28.808Z,100.00
2023-02-17T06:13:34.318Z,100.00
2023-02-17T06:14:36.589Z,100.00
2023-02-17T06:15:44.427Z,100.00
2023-02-17T06:16:47.200Z,100.00
2023-02-17T06:17:57.192Z,100.00
2023-02-17T06:19:00.519Z,100.00
2023-02-17T06:20:16.591Z,100.00
2023-02-17T06:21:19.015Z,100.00
2023-02-17T06:22:26.048Z,100.00
2023-02-17T06:23:32.352Z,100.00
2023-02-17T06:24:37.500Z,100.00
2023-02-17T06:25:40.679Z,100.00
2023-02-17T06:26:56.880Z,100.00
2023-02-17T06:28:02.041Z,100.00
2023-02-17T06:29:07.462Z,100.00
2023-02-17T06:30:15.108Z,100.00
2023-02-17T06:31:25.077Z,100.00
2023-02-17T06:32:27.769Z,100.00
2023-02-17T06:33:33.845Z,100.00
2023-02-17T06:34:46.376Z,100.00
2023-02-17T06:35:55.332Z,100.00
2023-02-17T06:36:58.141Z,100.00
2023-02-17T06:38:04.042Z,100.00
2023-02-17T06:39:07.021Z,100.00
2023-02-17T06:40:16.750Z,100.00
2023-02-17T06:41:19.242Z,100.00
2023-02-17T06:42:35.584Z,100.00
2023-02-17T06:43:42.271Z,100.00
2023-02-17T06:44:55.860Z,100.00
2023-02-17T06:46:06.155Z,100.00
2023-02-17T06:47:10.059Z,100.00
2023-02-17T06:48:19.823Z,100.00
2023-02-17T06:49:25.342Z,100.00
2023-02-17T06:50:29.313Z,100.00
2023-02-17T06:51:34.154Z,100.00
2023-02-17T06:52:39.180Z,100.00
2023-02-17T06:53:43.839Z,100.00
2023-02-17T06:54:49.371Z,100.00
2023-02-17T06:55:55.192Z,100.00
2023-02-17T06:56:59.690Z,100.00
2023-02-17T06:58:10.255Z,100.00
2023-02-17T06:59:18.222Z,100.00
2023-02-17T07:00:25.662Z,100.00
2023-02-17T07:01:30.592Z,100.00
2023-02-17T07:02:32.831Z,100.00
2023-02-17T07:03:38.018Z,100.00
2023-02-17T07:04:42.959Z,100.00
2023-02-17T07:05:56.820Z,100.00
2023-02-17T07:07:02.425Z,100.00
2023-02-17T07:08:08.538Z,100.00
2023-02-17T07:09:14.337Z,100.00
2023-02-17T07:10:19.090Z,100.00
2023-02-17T07:11:25.056Z,100.00
2023-02-17T07:12:28.240Z,100.00
2023-02-17T07:13:35.824Z,100.00
2023-02-17T07:14:47.744Z,100.00
2023-02-17T07:15:49.909Z,100.00
2023-02-17T07:16:56.010Z,100.00
2023-02-17T07:18:00.802Z,100.00
2023-02-17T07:19:02.855Z,100.00
2023-02-17T07:20:09.548Z,100.00
2023-02-17T07:21:11.618Z,100.00
2023-02-17T07:22:18.234Z,100.00
2023-02-17T07:23:24.039Z,100.00
2023-02-17T07:24:26.958Z,100.00
2023-02-17T07:25:31.814Z,100.00
2023-02-17T07:26:36.742Z,100.00
2023-02-17T07:27:41.970Z,100.00
2023-02-17T07:28:47.701Z,100.00
2023-02-17T07:29:52.718Z,100.00
2023-02-17T07:30:55.113Z,100.00
2023-02-17T07:32:00.183Z,100.00
2023-02-17T07:33:02.374Z,100.00
2023-02-17T07:34:09.362Z,100.00
2023-02-17T07:35:14.161Z,100.00
2023-02-17T07:36:20.258Z,100.00
2023-02-17T07:37:22.305Z,100.00
2023-02-17T07:38:54.450Z,100.00
2023-02-17T07:39:57.392Z,100.00
2023-02-17T07:41:08.492Z,100.00
2023-02-17T07:42:13.251Z,100.00
2023-02-17T07:43:15.300Z,100.00
2023-02-17T07:44:22.833Z,100.00
2023-02-17T07:45:25.303Z,100.00
2023-02-17T07:46:31.014Z,100.00
2023-02-17T07:47:33.375Z,100.00
2023-02-17T07:48:40.370Z,100.00
2023-02-17T07:49:46.119Z,100.00
2023-02-17T07:50:48.397Z,100.00
2023-02-17T07:51:53.331Z,100.00
2023-02-17T07:52:55.462Z,100.00
2023-02-17T07:54:00.847Z,100.00
2023-02-17T07:55:03.727Z,100.00
2023-02-17T07:56:11.397Z,100.00
2023-02-17T07:57:16.410Z,100.00
2023-02-17T07:58:19.090Z,100.00
2023-02-17T07:59:26.765Z,100.00
2023-02-17T08:00:30.690Z,100.00
2023-02-17T08:01:35.772Z,100.00
2023-02-17T08:02:38.110Z,100.00
2023-02-17T08:03:43.417Z,100.00
2023-02-17T08:04:50.121Z,100.00
2023-02-17T08:05:56.874Z,100.00
2023-02-17T08:07:02.313Z,100.00
2023-02-17T08:08:20.104Z,100.00
2023-02-17T08:09:44.524Z,100.00
2023-02-17T08:11:02.543Z,100.00
2023-02-17T08:12:23.780Z,100.00
2023-02-17T08:13:33.113Z,100.00
2023-02-17T08:14:41.050Z,100.00
2023-02-17T08:15:47.209Z,100.00
2023-02-17T08:16:51.271Z,100.00
2023-02-17T08:18:02.070Z,100.00
2023-02-17T08:19:07.783Z,100.00
2023-02-17T08:20:43.972Z,100.00
2023-02-17T08:21:51.427Z,100.00
2023-02-17T08:22:56.869Z,100.00
2023-02-17T08:24:01.702Z,100.00
2023-02-17T08:25:19.487Z,100.00
2023-02-17T08:26:28.561Z,100.00
2023-02-17T08:27:33.587Z,100.00
2023-02-17T08:28:36.025Z,100.00
2023-02-17T08:29:43.962Z,100.00
2023-02-17T08:30:49.107Z,100.00
2023-02-17T08:31:56.029Z,100.00
2023-02-17T08:33:02.778Z,100.00
2023-02-17T08:34:07.122Z,100.00
2023-02-17T08:35:12.379Z,100.00
2023-02-17T08:36:14.937Z,100.00
2023-02-17T08:37:19.745Z,100.00
2023-02-17T08:38:22.096Z,100.00
2023-02-17T08:39:27.414Z,100.00
2023-02-17T08:40:32.464Z,100.00
2023-02-17T08:41:39.930Z,100.00
2023-02-17T08:42:45.160Z,100.00
2023-02-17T08:43:51.028Z,100.00
2023-02-17T08:45:00.307Z,100.00
2023-02-17T08:46:02.464Z,100.00
2023-02-17T08:47:10.624Z,100.00
2023-02-17T08:48:15.576Z,100.00
2023-02-17T08:49:22.387Z,100.00
2023-02-17T08:50:27.479Z,100.00
2023-02-17T08:51:29.729Z,100.00
2023-02-17T08:52:35.034Z,100.00
2023-02-17T08:53:39.907Z,100.00
2023-02-17T08:54:45.038Z,100.00
2023-02-17T08:55:50.077Z,100.00
2023-02-17T08:56:55.315Z,100.00
2023-02-17T08:58:00.287Z,100.00
2023-02-17T08:59:04.867Z,100.00
2023-02-17T09:00:14.306Z,100.00
2023-02-17T09:01:19.785Z,100.00
2023-02-17T09:02:24.697Z,100.00
2023-02-17T09:03:29.687Z,100.00
2023-02-17T09:04:34.404Z,100.00
2023-02-17T09:05:36.980Z,100.00
2023-02-17T09:06:44.576Z,100.00
2023-02-17T09:07:49.680Z,100.00
2023-02-17T09:08:53.283Z,100.00
2023-02-17T09:10:13.855Z,100.00
2023-02-17T09:11:21.052Z,100.00
2023-02-17T09:12:25.941Z,100.00
2023-02-17T09:13:30.903Z,100.00
2023-02-17T09:14:35.966Z,100.00
2023-02-17T09:15:46.433Z,100.00
2023-02-17T09:16:48.525Z,100.00
2023-02-17T09:17:53.326Z,100.00
2023-02-17T09:18:58.486Z,100.00
2023-02-17T09:20:04.236Z,100.00
2023-02-17T09:21:14.815Z,100.00
2023-02-17T09:22:31.584Z,100.00
2023-02-17T09:23:39.675Z,100.00
2023-02-17T09:24:44.914Z,100.00
2023-02-17T09:25:47.265Z,100.00
2023-02-17T09:26:52.500Z,100.00
2023-02-17T09:27:59.769Z,100.00
2023-02-17T09:29:05.308Z,100.00
2023-02-17T09:30:09.421Z,100.00
2023-02-17T09:31:20.459Z,100.00
2023-02-17T09:32:25.870Z,100.00
2023-02-17T09:33:27.872Z,100.00
2023-02-17T09:34:32.654Z,100.00
2023-02-17T09:35:36.747Z,100.00
2023-02-17T09:36:43.159Z,100.00
2023-02-17T09:37:46.147Z,100.00
2023-02-17T09:38:51.337Z,100.00
2023-02-17T09:39:56.514Z,100.00
2023-02-17T09:41:04.358Z,100.00
2023-02-17T09:42:16.654Z,100.00
2023-02-17T09:43:28.047Z,100.00
2023-02-17T09:44:41.932Z,100.00
2023-02-17T09:45:53.196Z,100.00
2023-02-17T09:47:08.962Z,100.00
2023-02-17T09:48:14.050Z,100.00
2023-02-17T09:49:23.171Z,100.00
2023-02-17T09:51:26.075Z,100.00
2023-02-17T09:52:36.304Z,100.00
2023-02-17T09:53:43.324Z,100.00
2023-02-17T09:55:01.451Z,100.00
2023-02-17T09:56:14.144Z,100.00
2023-02-17T09:57:23.762Z,100.00
2023-02-17T09:58:34.642Z,100.00
2023-02-17T09:59:43.180Z,100.00
2023-02-17T10:00:50.981Z,100.00
2023-02-17T10:01:56.014Z,100.00
2023-02-17T10:03:12.602Z,100.00
2023-02-17T10:04:23.735Z,100.00
2023-02-17T10:05:33.111Z,100.00
2023-02-17T10:06:41.803Z,100.00
2023-02-17T10:07:51.450Z,100.00
2023-02-17T10:09:02.198Z,100.00
2023-02-17T10:10:12.905Z,100.00
2023-02-17T10:11:25.752Z,100.00
2023-02-17T10:12:37.629Z,100.00
2023-02-17T10:13:45.845Z,100.00
2023-02-17T10:14:55.754Z,100.00
2023-02-17T10:16:08.504Z,100.00
2023-02-17T10:17:20.963Z,100.00
2023-02-17T10:18:36.668Z,100.00
2023-02-17T10:19:52.140Z,100.00
2023-02-17T10:21:05.071Z,100.00
2023-02-17T10:22:13.451Z,100.00
2023-02-17T10:23:22.806Z,100.00
2023-02-17T10:24:27.217Z,100.00
2023-02-17T10:25:54.652Z,100.00
2023-02-17T10:27:33.967Z,100.00
2023-02-17T10:29:04.209Z,100.00
2023-02-17T10:30:25.212Z,100.00
2023-02-17T10:31:47.248Z,100.00
2023-02-17T10:33:07.463Z,100.00
2023-02-17T10:34:33.923Z,100.00
2023-02-17T10:35:57.872Z,100.00
2023-02-17T10:37:03.010Z,100.00
2023-02-17T10:38:27.709Z,100.00
2023-02-17T10:39:53.254Z,100.00
2023-02-17T10:41:04.130Z,100.00
2023-02-17T10:42:16.091Z,100.00
2023-02-17T10:43:30.363Z,100.00
2023-02-17T10:44:48.943Z,100.00
2023-02-17T10:45:54.777Z,100.00
2023-02-17T10:46:58.511Z,100.00
2023-02-17T10:48:09.873Z,100.00
2023-02-17T10:49:26.365Z,100.00
2023-02-17T10:50:31.601Z,100.00
2023-02-17T10:51:37.152Z,100.00
2023-02-17T10:52:41.173Z,100.00
2023-02-17T10:53:50.824Z,100.00
2023-02-17T10:55:01.909Z,100.00
2023-02-17T10:56:14.709Z,100.00
2023-02-17T10:57:27.069Z,100.00
2023-02-17T10:58:37.001Z,100.00
2023-02-17T10:59:45.415Z,100.00
2023-02-17T11:00:53.566Z,100.00
2023-02-17T11:02:08.405Z,100.00
2023-02-17T11:03:41.525Z,100.00
2023-02-17T11:04:55.460Z,100.00
2023-02-17T11:06:02.652Z,100.00
2023-02-17T11:07:16.036Z,100.00
2023-02-17T11:08:36.966Z,100.00
2023-02-17T11:10:01.752Z,100.00
2023-02-17T11:11:15.056Z,100.00
2023-02-17T11:12:28.209Z,100.00
2023-02-17T11:13:46.174Z,100.00
2023-02-17T11:14:58.880Z,100.00
2023-02-17T11:16:06.695Z,100.00
2023-02-17T11:17:22.651Z,100.00
2023-02-17T11:18:32.429Z,100.00
2023-02-17T11:19:46.773Z,100.00
2023-02-17T11:21:08.188Z,100.00
2023-02-17T11:22:55.487Z,100.00
2023-02-17T11:24:07.832Z,100.00
2023-02-17T11:25:41.439Z,100.00
2023-02-17T11:28:49.321Z,100.00
2023-02-17T11:30:01.695Z,100.00
2023-02-17T11:31:15.398Z,100.00
2023-02-17T11:32:36.587Z,100.00
2023-02-17T11:33:43.334Z,100.00
2023-02-17T11:35:09.755Z,100.00
2023-02-17T11:36:41.380Z,100.00
2023-02-17T11:37:48.696Z,100.00
2023-02-17T11:38:54.416Z,100.00
2023-02-17T11:39:56.639Z,100.00
2023-02-17T11:41:07.268Z,100.00
2023-02-17T11:42:20.595Z,100.00
2023-02-17T11:43:31.311Z,100.00
2023-02-17T11:44:38.841Z,100.00
2023-02-17T11:45:52.966Z,100.00
2023-02-17T11:47:13.044Z,100.00
2023-02-17T11:48:39.903Z,100.00
2023-02-17T11:50:11.140Z,100.00
2023-02-17T11:51:25.598Z,100.00
2023-02-17T11:53:07.786Z,100.00
2023-02-17T11:54:29.936Z,100.00
2023-02-17T11:55:46.150Z,100.00
2023-02-17T11:57:17.186Z,100.00
2023-02-17T11:58:37.753Z,100.00
2023-02-17T12:00:08.640Z,100.00
2023-02-17T12:01:33.113Z,100.00
2023-02-17T12:02:58.620Z,100.00
2023-02-17T12:04:44.287Z,100.00
2023-02-17T12:06:01.868Z,100.00
2023-02-17T12:07:39.206Z,100.00
2023-02-17T12:09:08.054Z,100.00
2023-02-17T12:10:27.325Z,100.00
2023-02-17T12:11:46.114Z,100.00
2023-02-17T12:13:06.268Z,100.00
2023-02-17T12:14:50.215Z,100.00
2023-02-17T12:16:10.241Z,100.00
2023-02-17T12:17:36.985Z,100.00
2023-02-17T12:18:56.224Z,100.00
2023-02-17T12:20:11.940Z,100.00
2023-02-17T12:21:27.947Z,100.00
2023-02-17T12:22:39.101Z,100.00
2023-02-17T12:24:26.255Z,100.00
2023-02-17T12:25:36.048Z,100.00
2023-02-17T12:26:42.493Z,100.00
2023-02-17T12:28:02.151Z,100.00
2023-02-17T12:29:23.045Z,100.00
2023-02-17T12:30:41.574Z,100.00
2023-02-17T12:32:14.741Z,100.00
2023-02-17T12:33:49.934Z,100.00
2023-02-17T12:35:15.762Z,100.00
2023-02-17T12:36:28.943Z,100.00
2023-02-17T12:37:40.940Z,100.00
2023-02-17T12:39:01.811Z,100.00
2023-02-17T12:40:22.238Z,100.00
2023-02-17T12:41:34.661Z,100.00
2023-02-17T12:42:44.821Z,100.00
2023-02-17T12:43:55.012Z,100.00
2023-02-17T12:46:24.973Z,100.00
2023-02-17T12:47:57.573Z,100.00
2023-02-17T12:49:19.035Z,100.00
2023-02-17T12:50:31.540Z,100.00
2023-02-17T12:51:45.471Z,100.00
2023-02-17T12:53:00.051Z,100.00
2023-02-17T12:54:17.735Z,100.00
2023-02-17T12:55:41.112Z,100.00
2023-02-17T12:57:24.142Z,100.00
2023-02-17T12:58:35.344Z,100.00
2023-02-17T12:59:45.158Z,100.00
2023-02-17T13:00:57.430Z,100.00
2023-02-17T13:02:14.276Z,100.00
2023-02-17T13:03:21.172Z,100.00
2023-02-17T13:04:37.687Z,100.00
2023-02-17T13:05:59.151Z,100.00
2023-02-17T13:07:27.069Z,100.00
2023-02-17T13:08:49.127Z,100.00
2023-02-17T13:09:52.372Z,100.00
2023-02-17T13:11:10.613Z,100.00
2023-02-17T13:12:40.335Z,100.00
2023-02-17T13:15:44.663Z,100.00
2023-02-17T13:16:48.458Z,100.00
2023-02-17T13:18:02.490Z,100.00
2023-02-17T13:21:18.308Z,100.00
2023-02-17T13:22:25.738Z,100.00
2023-02-17T13:23:40.981Z,100.00
2023-02-17T13:24:56.594Z,100.00
2023-02-17T13:26:29.404Z,100.00
2023-02-17T13:27:36.688Z,100.00
2023-02-17T13:28:41.897Z,100.00
2023-02-17T13:29:46.811Z,100.00
2023-02-17T13:30:52.620Z,100.00
2023-02-17T13:32:00.325Z,100.00
2023-02-17T13:33:04.729Z,100.00
2023-02-17T13:34:14.739Z,100.00
2023-02-17T13:35:37.656Z,100.00
2023-02-17T13:36:43.263Z,100.00
2023-02-17T13:39:45.890Z,100.00
2023-02-17T13:40:52.033Z,100.00
2023-02-17T13:42:03.229Z,100.00
2023-02-17T13:43:17.170Z,100.00
2023-02-17T13:44:45.060Z,100.00
2023-02-17T13:46:02.196Z,100.00
2023-02-17T13:47:19.960Z,100.00
2023-02-17T13:48:30.842Z,100.00
2023-02-17T13:49:47.621Z,100.00
2023-02-17T13:50:57.012Z,100.00
2023-02-17T13:52:16.733Z,100.00
2023-02-17T13:53:32.398Z,100.00
2023-02-17T13:54:34.958Z,100.00
2023-02-17T13:55:44.936Z,100.00
2023-02-17T13:56:56.308Z,100.00
2023-02-17T13:58:02.041Z,100.00
2023-02-17T13:59:14.364Z,100.00
2023-02-17T14:00:41.361Z,100.00
2023-02-17T14:01:55.243Z,100.00
2023-02-17T14:03:03.727Z,100.00
2023-02-17T14:04:23.057Z,100.00
2023-02-17T14:05:39.248Z,100.00
2023-02-17T14:06:43.950Z,100.00
2023-02-17T14:07:50.781Z,100.00
2023-02-17T14:08:55.245Z,100.00
2023-02-17T14:10:08.114Z,100.00
2023-02-17T14:11:26.071Z,100.00
2023-02-17T14:12:30.920Z,100.00
2023-02-17T14:13:41.437Z,100.00
2023-02-17T14:14:46.328Z,100.00
2023-02-17T14:15:57.841Z,100.00
2023-02-17T14:18:39.263Z,100.00
2023-02-17T14:19:57.865Z,100.00
2023-02-17T14:21:12.984Z,100.00
2023-02-17T14:22:33.776Z,100.00
2023-02-17T14:23:52.587Z,100.00
2023-02-17T14:25:22.820Z,100.00
2023-02-17T14:26:39.026Z,100.00
2023-02-17T14:27:50.636Z,100.00
2023-02-17T14:29:02.532Z,100.00
2023-02-17T14:30:06.360Z,100.00
2023-02-17T14:31:26.124Z,100.00
2023-02-17T14:32:38.667Z,100.00
2023-02-17T14:33:53.188Z,100.00
2023-02-17T14:35:11.448Z,100.00
2023-02-17T14:36:33.437Z,100.00
2023-02-17T14:37:40.192Z,100.00
2023-02-17T14:38:44.446Z,100.00
2023-02-17T14:39:49.716Z,100.00
2023-02-17T14:40:56.278Z,100.00
2023-02-17T14:42:04.301Z,100.00
2023-02-17T14:43:13.800Z,100.00
2023-02-17T14:44:27.706Z,100.00
2023-02-17T14:45:30.598Z,100.00
2023-02-17T14:46:41.344Z,100.00
2023-02-17T14:47:44.075Z,100.00
2023-02-17T14:48:55.157Z,100.00